Terminal Aerodrome Forecast
Issued by NWS

Home | Current Version | Previous Version | Text Only | Print | Product List | Glossary On
Versions: 1 2 3 4 5 6 7 8 9 10 11 12 13 14
045
FTUS46 KMTR 311728
TAFSTS
TAF
KSTS 311728Z 3118/0118 18004KT P6SM SKC
     FM312000 17008KT P6SM SKC
     FM010300 VRB03KT P6SM SKC
     FM011000 VRB03KT 2SM BR BKN007
     FM011500 00000KT P6SM FEW007=

USA.gov is the U.S. government's official web portal to all federal, state and local government web resources and services.